Flight Track Log - Related Links

Times and Time Zones

All times are in EDT time to prevent confusion due to time zone crossing. See the RPA3275 flight status page for this flight to view local times or setup timezone preferences in your user account.

Time Position Orientation Groundspeed Altitude Reporting Facility
EDT Latitude Longitude Course Direction KTS MPH feet Rate Location/Type
Tue 06:59:56 AM 42.7653 -73.8061 223° Southwest 142 163 1,400  Level Boston Center
Tue 07:00:57 AM 42.7897 -73.8492 308° West 215 247 3,100 2,213 Climbing Boston Center
Tue 07:01:58 AM 42.7803 -73.9450 262° West 288 331 5,900 3,065 Climbing Boston Center
Tue 07:02:00 AM 42.7333 -74.2065 270° West  Level FlightAware Approximate
Tue 07:03:00 AM 42.7157 -74.3344 220° Southwest  Level FlightAware Approximate
Tue 07:03:16 AM 42.7678 -74.0861 263° West 297 342 10,200  Level Boston Center
Tue 07:04:00 AM 42.6391 -74.4207 220° Southwest  Level FlightAware Approximate
Tue 07:04:16 AM 42.7581 -74.1878 263° West 297 342 12,500  Level Boston Center
Tue 07:05:00 AM 42.5633 -74.5084 223° Southwest  Level FlightAware Approximate
Tue 07:05:16 AM 42.7350 -74.3200 257° West 317 365 15,300  Level Boston Center
Tue 07:06:16 AM 42.6692 -74.3969 221° Southwest 317 365 16,000 350 Climbing Boston Center
Tue 07:07:16 AM 42.5861 -74.4903 220° Southwest 337 388 16,000  Level Boston Center
Tue 07:08:16 AM 42.5117 -74.5750 220° Southwest 358 412 16,000  Level Boston Center
Tue 07:09:16 AM 42.4369 -74.6653 222° Southwest 363 418 16,000  Level Boston Center
Tue 07:10:16 AM 42.3581 -74.7497 218° Southwest 358 412 16,000 35 Level Boston Center
Tue 07:12:06 AM 42.2219 -74.9042 220° Southwest 358 412 16,100 35 Climbing New York Center
Tue 07:13:06 AM 42.1506 -74.9806 218° Southwest 358 412 16,100  Level New York Center
Tue 07:14:08 AM 42.0583 -75.0586 212° Southwest 364 419 16,100  Level New York Center
Tue 07:15:06 AM 41.9744 -75.1283 212° Southwest 364 419 16,100  Level New York Center
Tue 07:16:07 AM 41.8886 -75.2008 212° Southwest 364 419 16,100 -49 Level New York Center
Tue 07:17:08 AM 41.8114 -75.2597 210° Southwest 364 419 16,000 -50 Descending New York Center
Tue 07:18:06 AM 41.7297 -75.3264 211° Southwest 364 419 16,000  Level New York Center
Tue 07:19:06 AM 41.6417 -75.3953 210° Southwest 345 397 16,000 -893 Level New York Center
Tue 07:20:07 AM 41.5556 -75.4669 212° Southwest 355 409 14,200 -1,770 Descending New York Center
Tue 07:21:08 AM 41.4783 -75.5253 210° Southwest 367 422 12,400 -1,091 Descending New York Center
Tue 07:22:08 AM 41.3986 -75.5914 212° Southwest 355 409 12,000 -205 Descending New York Center
Tue 07:23:05 AM 41.3169 -75.6547 210° Southwest 341 392 12,000  Level New York Center
Tue 07:24:06 AM 41.2197 -75.6892 195° South 336 387 12,000  Level New York Center
Tue 07:25:07 AM 41.1239 -75.6875 179° South 341 392 12,000  Level New York Center
Tue 07:26:07 AM 41.0300 -75.6892 181° South 347 399 12,000  Level New York Center
Tue 07:27:08 AM 40.9347 -75.6767 174° South 347 399 12,000  Level New York Center
Tue 07:28:05 AM 40.8450 -75.6317 159° South 347 399 12,000  Level New York Center
Tue 07:29:07 AM 40.7531 -75.5869 160° South 347 399 12,000  Level New York Center
Tue 07:30:07 AM 40.6653 -75.5397 158° South 347 399 12,000  Level New York Center
Tue 07:31:08 AM 40.5733 -75.4950 160° South 347 399 12,000 -738 Level New York Center
Tue 07:32:09 AM 40.4856 -75.4508 159° South 342 394 10,500 -1,017 Descending New York Center
Tue 07:33:06 AM 40.4039 -75.4072 158° South 336 387 10,000 -454 Descending New York Center
Tue 07:34:08 AM 40.3347 -75.3589 152° Southeast 319 367 9,600 -1,180 Descending New York Center
Tue 07:35:08 AM 40.2561 -75.2967 149° Southeast 304 350 7,600 -1,765 Descending New York Center
Tue 07:36:07 AM 40.1831 -75.2428 151° Southeast 304 350 6,100 -793 Descending New York Center
Tue 07:37:09 AM 40.1167 -75.1833 146° Southeast 296 341 6,000 -375 Descending Philadelphia TRACON
Tue 07:38:15 AM 40.0333 -75.1333 155° Southeast 239 275 5,300 -636 Descending Philadelphia TRACON

Login

Don't have an account? Register now (free) for customized features, flight alerts, and more!